sensor_id;sensor_type;location;lat;lon;timestamp;P1;durP1;ratioP1;P2;durP2;ratioP2
74233;SDS011;62591;55.764;37.718;2023-04-03T00:01:25;25.23;;;13.95;;
74233;SDS011;62591;55.764;37.718;2023-04-03T00:03:53;19.92;;;13.40;;
74233;SDS011;62591;55.764;37.718;2023-04-03T00:06:22;20.80;;;12.80;;
74233;SDS011;62591;55.764;37.718;2023-04-03T00:08:51;22.33;;;13.82;;
74233;SDS011;62591;55.764;37.718;2023-04-03T00:11:20;23.92;;;14.50;;
74233;SDS011;62591;55.764;37.718;2023-04-03T00:13:49;24.92;;;14.85;;
74233;SDS011;62591;55.764;37.718;2023-04-03T00:16:18;23.02;;;14.68;;
74233;SDS011;62591;55.764;37.718;2023-04-03T00:18:48;28.83;;;16.05;;
74233;SDS011;62591;55.764;37.718;2023-04-03T00:21:17;25.60;;;15.45;;
74233;SDS011;62591;55.764;37.718;2023-04-03T00:23:45;23.38;;;16.48;;
74233;SDS011;62591;55.764;37.718;2023-04-03T00:26:14;24.63;;;17.45;;
74233;SDS011;62591;55.764;37.718;2023-04-03T00:28:42;27.25;;;18.95;;
74233;SDS011;62591;55.764;37.718;2023-04-03T00:31:11;38.53;;;24.42;;
74233;SDS011;62591;55.764;37.718;2023-04-03T00:33:42;39.35;;;25.55;;
74233;SDS011;62591;55.764;37.718;2023-04-03T00:36:12;28.13;;;18.75;;
74233;SDS011;62591;55.764;37.718;2023-04-03T00:38:42;23.83;;;15.43;;
74233;SDS011;62591;55.764;37.718;2023-04-03T00:41:11;24.17;;;15.07;;
74233;SDS011;62591;55.764;37.718;2023-04-03T00:43:39;32.60;;;19.08;;
74233;SDS011;62591;55.764;37.718;2023-04-03T00:46:07;21.35;;;14.13;;
74233;SDS011;62591;55.764;37.718;2023-04-03T00:48:37;23.00;;;13.80;;
74233;SDS011;62591;55.764;37.718;2023-04-03T00:51:11;22.13;;;13.68;;
74233;SDS011;62591;55.764;37.718;2023-04-03T00:53:44;18.63;;;11.88;;
74233;SDS011;62591;55.764;37.718;2023-04-03T00:56:16;20.15;;;12.02;;
74233;SDS011;62591;55.764;37.718;2023-04-03T00:58:50;16.83;;;11.07;;
74233;SDS011;62591;55.764;37.718;2023-04-03T01:01:23;20.98;;;12.38;;
74233;SDS011;62591;55.764;37.718;2023-04-03T01:03:54;29.55;;;17.83;;
74233;SDS011;62591;55.764;37.718;2023-04-03T01:06:26;65.85;;;36.90;;
74233;SDS011;62591;55.764;37.718;2023-04-03T01:09:05;87.75;;;46.67;;
74233;SDS011;62591;55.764;37.718;2023-04-03T01:11:34;57.75;;;34.08;;
74233;SDS011;62591;55.764;37.718;2023-04-03T01:14:03;47.42;;;28.40;;
74233;SDS011;62591;55.764;37.718;2023-04-03T01:16:32;33.13;;;19.52;;
74233;SDS011;62591;55.764;37.718;2023-04-03T01:19:01;27.33;;;18.02;;
74233;SDS011;62591;55.764;37.718;2023-04-03T01:21:57;25.02;;;16.42;;
74233;SDS011;62591;55.764;37.718;2023-04-03T01:24:36;23.83;;;14.23;;
74233;SDS011;62591;55.764;37.718;2023-04-03T01:27:09;24.50;;;15.88;;
74233;SDS011;62591;55.764;37.718;2023-04-03T01:29:39;22.90;;;16.63;;
74233;SDS011;62591;55.764;37.718;2023-04-03T01:32:11;25.80;;;16.08;;
74233;SDS011;62591;55.764;37.718;2023-04-03T01:34:41;23.23;;;15.93;;
74233;SDS011;62591;55.764;37.718;2023-04-03T01:37:09;27.02;;;17.23;;
74233;SDS011;62591;55.764;37.718;2023-04-03T01:39:38;23.50;;;16.85;;
74233;SDS011;62591;55.764;37.718;2023-04-03T01:42:07;23.63;;;17.17;;
74233;SDS011;62591;55.764;37.718;2023-04-03T01:44:40;23.90;;;15.90;;
74233;SDS011;62591;55.764;37.718;2023-04-03T01:47:08;25.10;;;16.10;;
74233;SDS011;62591;55.764;37.718;2023-04-03T01:49:40;19.65;;;12.20;;
74233;SDS011;62591;55.764;37.718;2023-04-03T01:52:09;21.02;;;11.90;;
74233;SDS011;62591;55.764;37.718;2023-04-03T01:54:38;19.90;;;12.20;;
74233;SDS011;62591;55.764;37.718;2023-04-03T01:57:06;20.63;;;11.93;;
74233;SDS011;62591;55.764;37.718;2023-04-03T01:59:35;19.52;;;13.57;;
74233;SDS011;62591;55.764;37.718;2023-04-03T02:02:04;21.55;;;12.35;;
74233;SDS011;62591;55.764;37.718;2023-04-03T02:04:32;20.33;;;14.13;;
74233;SDS011;62591;55.764;37.718;2023-04-03T02:07:03;21.13;;;12.35;;
74233;SDS011;62591;55.764;37.718;2023-04-03T02:09:32;22.98;;;12.40;;
74233;SDS011;62591;55.764;37.718;2023-04-03T02:12:01;21.25;;;13.57;;
74233;SDS011;62591;55.764;37.718;2023-04-03T02:14:32;21.73;;;12.27;;
74233;SDS011;62591;55.764;37.718;2023-04-03T02:17:00;20.25;;;12.85;;
74233;SDS011;62591;55.764;37.718;2023-04-03T02:19:31;19.60;;;12.82;;
74233;SDS011;62591;55.764;37.718;2023-04-03T02:22:00;20.23;;;13.85;;
74233;SDS011;62591;55.764;37.718;2023-04-03T02:24:30;21.38;;;14.02;;
74233;SDS011;62591;55.764;37.718;2023-04-03T02:26:59;20.55;;;12.55;;
74233;SDS011;62591;55.764;37.718;2023-04-03T02:33:57;20.77;;;11.25;;
74233;SDS011;62591;55.764;37.718;2023-04-03T02:36:26;18.67;;;12.13;;
74233;SDS011;62591;55.764;37.718;2023-04-03T02:39:01;18.52;;;12.45;;
74233;SDS011;62591;55.764;37.718;2023-04-03T02:41:31;19.85;;;12.40;;
74233;SDS011;62591;55.764;37.718;2023-04-03T02:44:06;16.83;;;12.50;;
74233;SDS011;62591;55.764;37.718;2023-04-03T02:46:36;16.17;;;11.65;;
74233;SDS011;62591;55.764;37.718;2023-04-03T02:49:05;19.63;;;12.60;;
74233;SDS011;62591;55.764;37.718;2023-04-03T02:51:34;21.77;;;12.98;;
74233;SDS011;62591;55.764;37.718;2023-04-03T02:54:02;21.17;;;13.40;;
74233;SDS011;62591;55.764;37.718;2023-04-03T02:56:34;26.27;;;13.73;;
74233;SDS011;62591;55.764;37.718;2023-04-03T02:59:03;20.10;;;12.90;;
74233;SDS011;62591;55.764;37.718;2023-04-03T03:01:35;21.98;;;13.43;;
74233;SDS011;62591;55.764;37.718;2023-04-03T03:04:03;20.15;;;13.68;;
74233;SDS011;62591;55.764;37.718;2023-04-03T03:06:32;19.65;;;13.02;;
74233;SDS011;62591;55.764;37.718;2023-04-03T03:09:00;20.33;;;13.50;;
74233;SDS011;62591;55.764;37.718;2023-04-03T03:11:30;20.55;;;12.48;;
74233;SDS011;62591;55.764;37.718;2023-04-03T03:14:00;21.23;;;12.30;;
74233;SDS011;62591;55.764;37.718;2023-04-03T03:16:28;26.08;;;12.32;;
74233;SDS011;62591;55.764;37.718;2023-04-03T03:18:57;20.52;;;13.35;;
74233;SDS011;62591;55.764;37.718;2023-04-03T03:21:26;26.95;;;14.38;;
74233;SDS011;62591;55.764;37.718;2023-04-03T03:23:55;21.58;;;13.52;;
74233;SDS011;62591;55.764;37.718;2023-04-03T03:26:23;22.83;;;14.25;;
74233;SDS011;62591;55.764;37.718;2023-04-03T03:28:54;21.33;;;14.45;;
74233;SDS011;62591;55.764;37.718;2023-04-03T03:31:24;22.95;;;14.77;;
74233;SDS011;62591;55.764;37.718;2023-04-03T03:33:53;26.48;;;14.93;;
74233;SDS011;62591;55.764;37.718;2023-04-03T03:36:22;22.27;;;13.98;;
74233;SDS011;62591;55.764;37.718;2023-04-03T03:38:50;25.50;;;15.40;;
74233;SDS011;62591;55.764;37.718;2023-04-03T03:41:19;28.00;;;15.48;;
74233;SDS011;62591;55.764;37.718;2023-04-03T03:43:48;27.27;;;16.15;;
74233;SDS011;62591;55.764;37.718;2023-04-03T03:46:16;28.25;;;15.23;;
74233;SDS011;62591;55.764;37.718;2023-04-03T03:48:46;25.20;;;15.25;;
74233;SDS011;62591;55.764;37.718;2023-04-03T03:51:15;21.60;;;15.07;;
74233;SDS011;62591;55.764;37.718;2023-04-03T03:53:44;21.77;;;14.07;;
74233;SDS011;62591;55.764;37.718;2023-04-03T03:56:15;20.77;;;14.45;;
74233;SDS011;62591;55.764;37.718;2023-04-03T03:58:45;23.70;;;15.70;;
74233;SDS011;62591;55.764;37.718;2023-04-03T04:01:13;23.33;;;13.48;;
74233;SDS011;62591;55.764;37.718;2023-04-03T04:03:48;21.38;;;12.88;;
74233;SDS011;62591;55.764;37.718;2023-04-03T04:06:20;27.55;;;13.98;;
74233;SDS011;62591;55.764;37.718;2023-04-03T04:08:50;19.75;;;12.50;;
74233;SDS011;62591;55.764;37.718;2023-04-03T04:11:19;16.65;;;11.10;;
74233;SDS011;62591;55.764;37.718;2023-04-03T04:13:49;23.02;;;13.10;;
74233;SDS011;62591;55.764;37.718;2023-04-03T04:16:20;25.80;;;13.73;;
74233;SDS011;62591;55.764;37.718;2023-04-03T04:18:51;18.42;;;11.88;;
74233;SDS011;62591;55.764;37.718;2023-04-03T04:21:20;18.80;;;12.23;;
74233;SDS011;62591;55.764;37.718;2023-04-03T04:23:51;21.17;;;12.95;;
74233;SDS011;62591;55.764;37.718;2023-04-03T04:26:19;21.30;;;12.40;;
74233;SDS011;62591;55.764;37.718;2023-04-03T04:28:48;22.27;;;12.48;;
74233;SDS011;62591;55.764;37.718;2023-04-03T04:31:18;21.10;;;11.80;;
74233;SDS011;62591;55.764;37.718;2023-04-03T04:33:47;23.20;;;11.50;;
74233;SDS011;62591;55.764;37.718;2023-04-03T04:36:19;19.13;;;12.35;;
74233;SDS011;62591;55.764;37.718;2023-04-03T04:38:48;20.65;;;12.00;;
74233;SDS011;62591;55.764;37.718;2023-04-03T04:41:21;19.63;;;11.82;;
74233;SDS011;62591;55.764;37.718;2023-04-03T04:43:51;18.42;;;12.88;;
74233;SDS011;62591;55.764;37.718;2023-04-03T04:46:21;21.90;;;14.27;;
74233;SDS011;62591;55.764;37.718;2023-04-03T04:48:54;21.92;;;13.30;;
74233;SDS011;62591;55.764;37.718;2023-04-03T04:51:26;26.52;;;14.27;;
74233;SDS011;62591;55.764;37.718;2023-04-03T04:54:01;19.67;;;11.95;;
74233;SDS011;62591;55.764;37.718;2023-04-03T04:56:31;23.15;;;12.48;;
74233;SDS011;62591;55.764;37.718;2023-04-03T04:59:00;20.40;;;12.52;;
74233;SDS011;62591;55.764;37.718;2023-04-03T05:01:29;21.27;;;12.52;;
74233;SDS011;62591;55.764;37.718;2023-04-03T05:04:08;17.30;;;12.02;;
74233;SDS011;62591;55.764;37.718;2023-04-03T05:06:38;19.58;;;12.70;;
74233;SDS011;62591;55.764;37.718;2023-04-03T05:09:13;22.20;;;12.18;;
74233;SDS011;62591;55.764;37.718;2023-04-03T05:11:43;19.95;;;12.65;;
74233;SDS011;62591;55.764;37.718;2023-04-03T05:14:14;20.90;;;11.80;;
74233;SDS011;62591;55.764;37.718;2023-04-03T05:16:43;18.80;;;12.25;;
74233;SDS011;62591;55.764;37.718;2023-04-03T05:19:27;21.80;;;12.57;;
74233;SDS011;62591;55.764;37.718;2023-04-03T05:21:58;18.58;;;11.43;;
74233;SDS011;62591;55.764;37.718;2023-04-03T05:24:29;21.27;;;13.50;;
74233;SDS011;62591;55.764;37.718;2023-04-03T05:26:59;25.92;;;14.73;;
74233;SDS011;62591;55.764;37.718;2023-04-03T05:29:28;19.52;;;14.50;;
74233;SDS011;62591;55.764;37.718;2023-04-03T05:31:59;27.38;;;16.00;;
74233;SDS011;62591;55.764;37.718;2023-04-03T05:34:28;25.45;;;14.93;;
74233;SDS011;62591;55.764;37.718;2023-04-03T05:36:57;27.52;;;14.55;;
74233;SDS011;62591;55.764;37.718;2023-04-03T05:39:27;27.75;;;15.38;;
74233;SDS011;62591;55.764;37.718;2023-04-03T05:41:59;26.02;;;15.77;;
74233;SDS011;62591;55.764;37.718;2023-04-03T05:44:28;23.13;;;13.73;;
74233;SDS011;62591;55.764;37.718;2023-04-03T05:46:58;24.95;;;14.20;;
74233;SDS011;62591;55.764;37.718;2023-04-03T05:49:27;26.05;;;14.52;;
74233;SDS011;62591;55.764;37.718;2023-04-03T05:51:55;29.85;;;14.57;;
74233;SDS011;62591;55.764;37.718;2023-04-03T05:54:30;24.40;;;13.88;;
74233;SDS011;62591;55.764;37.718;2023-04-03T05:57:06;24.13;;;16.10;;
74233;SDS011;62591;55.764;37.718;2023-04-03T05:59:36;27.45;;;15.70;;
74233;SDS011;62591;55.764;37.718;2023-04-03T06:02:05;32.85;;;19.95;;
74233;SDS011;62591;55.764;37.718;2023-04-03T06:04:36;30.00;;;16.50;;
74233;SDS011;62591;55.764;37.718;2023-04-03T06:07:05;26.08;;;14.38;;
74233;SDS011;62591;55.764;37.718;2023-04-03T06:09:35;26.65;;;15.20;;
74233;SDS011;62591;55.764;37.718;2023-04-03T06:12:04;28.55;;;15.52;;
74233;SDS011;62591;55.764;37.718;2023-04-03T06:14:33;28.17;;;14.60;;
74233;SDS011;62591;55.764;37.718;2023-04-03T06:17:02;23.98;;;15.05;;
74233;SDS011;62591;55.764;37.718;2023-04-03T06:19:31;27.33;;;14.07;;
74233;SDS011;62591;55.764;37.718;2023-04-03T06:22:00;23.63;;;14.57;;
74233;SDS011;62591;55.764;37.718;2023-04-03T06:24:29;27.00;;;17.65;;
74233;SDS011;62591;55.764;37.718;2023-04-03T06:27:00;27.98;;;14.52;;
74233;SDS011;62591;55.764;37.718;2023-04-03T06:29:29;23.08;;;14.98;;
74233;SDS011;62591;55.764;37.718;2023-04-03T06:31:57;26.10;;;14.48;;
74233;SDS011;62591;55.764;37.718;2023-04-03T06:34:26;30.23;;;15.50;;
74233;SDS011;62591;55.764;37.718;2023-04-03T06:36:54;33.92;;;15.13;;
74233;SDS011;62591;55.764;37.718;2023-04-03T06:39:23;29.50;;;14.88;;
74233;SDS011;62591;55.764;37.718;2023-04-03T06:41:52;26.52;;;15.55;;
74233;SDS011;62591;55.764;37.718;2023-04-03T06:44:30;29.98;;;16.25;;
74233;SDS011;62591;55.764;37.718;2023-04-03T06:47:00;27.08;;;15.35;;
74233;SDS011;62591;55.764;37.718;2023-04-03T06:49:29;35.05;;;16.25;;
74233;SDS011;62591;55.764;37.718;2023-04-03T06:51:58;28.52;;;17.33;;
74233;SDS011;62591;55.764;37.718;2023-04-03T06:54:28;34.05;;;16.33;;
74233;SDS011;62591;55.764;37.718;2023-04-03T06:56:56;30.00;;;16.27;;
74233;SDS011;62591;55.764;37.718;2023-04-03T06:59:26;30.35;;;16.13;;
74233;SDS011;62591;55.764;37.718;2023-04-03T07:01:56;31.38;;;16.42;;
74233;SDS011;62591;55.764;37.718;2023-04-03T07:04:27;30.42;;;15.77;;
74233;SDS011;62591;55.764;37.718;2023-04-03T07:06:55;27.88;;;16.17;;
74233;SDS011;62591;55.764;37.718;2023-04-03T07:09:24;30.67;;;16.17;;
74233;SDS011;62591;55.764;37.718;2023-04-03T07:11:52;30.70;;;16.90;;
74233;SDS011;62591;55.764;37.718;2023-04-03T07:14:21;30.08;;;18.13;;
74233;SDS011;62591;55.764;37.718;2023-04-03T07:16:50;33.70;;;16.10;;
74233;SDS011;62591;55.764;37.718;2023-04-03T07:19:19;36.58;;;16.92;;
74233;SDS011;62591;55.764;37.718;2023-04-03T07:21:48;27.50;;;16.67;;
74233;SDS011;62591;55.764;37.718;2023-04-03T07:24:17;33.60;;;15.18;;
74233;SDS011;62591;55.764;37.718;2023-04-03T07:26:48;65.50;;;19.45;;
74233;SDS011;62591;55.764;37.718;2023-04-03T07:29:17;39.65;;;16.92;;
74233;SDS011;62591;55.764;37.718;2023-04-03T07:31:46;30.15;;;16.83;;
74233;SDS011;62591;55.764;37.718;2023-04-03T07:34:16;34.00;;;16.55;;
74233;SDS011;62591;55.764;37.718;2023-04-03T07:36:45;60.25;;;17.92;;
74233;SDS011;62591;55.764;37.718;2023-04-03T07:39:14;38.10;;;17.13;;
74233;SDS011;62591;55.764;37.718;2023-04-03T07:41:42;32.47;;;15.80;;
74233;SDS011;62591;55.764;37.718;2023-04-03T07:44:11;27.85;;;17.17;;
74233;SDS011;62591;55.764;37.718;2023-04-03T07:46:39;29.75;;;16.58;;
74233;SDS011;62591;55.764;37.718;2023-04-03T07:49:09;34.25;;;16.92;;
74233;SDS011;62591;55.764;37.718;2023-04-03T07:51:37;30.10;;;14.77;;
74233;SDS011;62591;55.764;37.718;2023-04-03T07:54:07;29.23;;;14.68;;
74233;SDS011;62591;55.764;37.718;2023-04-03T07:56:36;29.50;;;14.30;;
74233;SDS011;62591;55.764;37.718;2023-04-03T07:59:04;28.10;;;13.30;;
74233;SDS011;62591;55.764;37.718;2023-04-03T08:01:33;30.27;;;14.77;;
74233;SDS011;62591;55.764;37.718;2023-04-03T08:04:01;26.17;;;14.65;;
74233;SDS011;62591;55.764;37.718;2023-04-03T08:06:31;20.92;;;13.73;;
74233;SDS011;62591;55.764;37.718;2023-04-03T08:09:15;31.92;;;15.15;;
74233;SDS011;62591;55.764;37.718;2023-04-03T08:11:44;23.13;;;14.00;;
74233;SDS011;62591;55.764;37.718;2023-04-03T08:14:13;29.35;;;13.85;;
74233;SDS011;62591;55.764;37.718;2023-04-03T08:16:45;21.15;;;14.35;;
74233;SDS011;62591;55.764;37.718;2023-04-03T08:19:15;27.88;;;15.70;;
74233;SDS011;62591;55.764;37.718;2023-04-03T08:21:54;21.80;;;13.38;;
74233;SDS011;62591;55.764;37.718;2023-04-03T08:24:26;27.45;;;14.63;;
74233;SDS011;62591;55.764;37.718;2023-04-03T08:32:42;22.73;;;13.95;;
74233;SDS011;62591;55.764;37.718;2023-04-03T08:35:11;24.98;;;13.82;;
74233;SDS011;62591;55.764;37.718;2023-04-03T08:37:39;26.00;;;15.93;;
74233;SDS011;62591;55.764;37.718;2023-04-03T08:40:13;25.88;;;13.52;;
74233;SDS011;62591;55.764;37.718;2023-04-03T08:42:47;31.35;;;15.10;;
74233;SDS011;62591;55.764;37.718;2023-04-03T08:45:36;27.70;;;14.15;;
74233;SDS011;62591;55.764;37.718;2023-04-03T08:48:11;25.10;;;13.18;;
74233;SDS011;62591;55.764;37.718;2023-04-03T08:50:46;23.38;;;13.10;;
74233;SDS011;62591;55.764;37.718;2023-04-03T08:53:19;24.08;;;14.15;;
74233;SDS011;62591;55.764;37.718;2023-04-03T08:55:52;24.73;;;14.55;;
74233;SDS011;62591;55.764;37.718;2023-04-03T08:58:23;26.27;;;15.23;;
74233;SDS011;62591;55.764;37.718;2023-04-03T09:00:56;27.23;;;14.65;;
74233;SDS011;62591;55.764;37.718;2023-04-03T09:03:30;33.88;;;14.68;;
74233;SDS011;62591;55.764;37.718;2023-04-03T09:06:02;28.48;;;14.88;;
74233;SDS011;62591;55.764;37.718;2023-04-03T09:08:34;28.88;;;15.10;;
74233;SDS011;62591;55.764;37.718;2023-04-03T09:11:13;32.22;;;15.40;;
74233;SDS011;62591;55.764;37.718;2023-04-03T09:13:47;25.75;;;14.55;;
74233;SDS011;62591;55.764;37.718;2023-04-03T09:16:25;26.20;;;15.27;;
74233;SDS011;62591;55.764;37.718;2023-04-03T09:19:06;26.60;;;15.05;;
74233;SDS011;62591;55.764;37.718;2023-04-03T09:21:46;28.98;;;15.38;;
74233;SDS011;62591;55.764;37.718;2023-04-03T09:24:15;26.95;;;14.85;;
74233;SDS011;62591;55.764;37.718;2023-04-03T09:26:48;40.85;;;16.70;;
74233;SDS011;62591;55.764;37.718;2023-04-03T09:29:22;35.55;;;16.08;;
74233;SDS011;62591;55.764;37.718;2023-04-03T09:31:56;30.95;;;16.40;;
74233;SDS011;62591;55.764;37.718;2023-04-03T09:34:28;31.05;;;15.93;;
74233;SDS011;62591;55.764;37.718;2023-04-03T09:36:59;30.23;;;14.70;;
74233;SDS011;62591;55.764;37.718;2023-04-03T09:39:33;33.40;;;16.25;;
74233;SDS011;62591;55.764;37.718;2023-04-03T09:42:20;32.47;;;15.57;;
74233;SDS011;62591;55.764;37.718;2023-04-03T09:44:52;30.65;;;15.43;;
74233;SDS011;62591;55.764;37.718;2023-04-03T09:47:24;31.35;;;14.35;;
74233;SDS011;62591;55.764;37.718;2023-04-03T09:50:09;27.58;;;13.65;;
74233;SDS011;62591;55.764;37.718;2023-04-03T09:52:47;29.52;;;16.13;;
74233;SDS011;62591;55.764;37.718;2023-04-03T09:55:21;26.05;;;14.90;;
74233;SDS011;62591;55.764;37.718;2023-04-03T09:57:57;25.63;;;14.63;;
74233;SDS011;62591;55.764;37.718;2023-04-03T10:00:28;25.00;;;14.75;;
74233;SDS011;62591;55.764;37.718;2023-04-03T10:03:01;26.55;;;15.18;;
74233;SDS011;62591;55.764;37.718;2023-04-03T10:05:32;31.70;;;14.35;;
74233;SDS011;62591;55.764;37.718;2023-04-03T10:11:13;29.10;;;14.07;;
74233;SDS011;62591;55.764;37.718;2023-04-03T10:13:52;26.90;;;13.55;;
74233;SDS011;62591;55.764;37.718;2023-04-03T10:16:24;25.88;;;14.38;;
74233;SDS011;62591;55.764;37.718;2023-04-03T10:19:02;26.23;;;14.13;;
74233;SDS011;62591;55.764;37.718;2023-04-03T10:21:43;21.02;;;13.32;;
74233;SDS011;62591;55.764;37.718;2023-04-03T10:24:18;28.92;;;13.82;;
74233;SDS011;62591;55.764;37.718;2023-04-03T10:26:52;24.33;;;14.75;;
74233;SDS011;62591;55.764;37.718;2023-04-03T10:29:30;26.42;;;13.30;;
74233;SDS011;62591;55.764;37.718;2023-04-03T10:32:12;26.88;;;12.65;;
74233;SDS011;62591;55.764;37.718;2023-04-03T10:34:48;27.67;;;12.15;;
74233;SDS011;62591;55.764;37.718;2023-04-03T10:37:33;28.77;;;12.90;;
74233;SDS011;62591;55.764;37.718;2023-04-03T10:40:20;29.90;;;14.40;;
74233;SDS011;62591;55.764;37.718;2023-04-03T10:43:01;28.58;;;12.98;;
74233;SDS011;62591;55.764;37.718;2023-04-03T10:45:47;21.20;;;10.57;;
74233;SDS011;62591;55.764;37.718;2023-04-03T10:50:58;19.70;;;12.75;;
74233;SDS011;62591;55.764;37.718;2023-04-03T10:53:36;23.10;;;12.50;;
74233;SDS011;62591;55.764;37.718;2023-04-03T10:56:12;24.02;;;11.80;;
74233;SDS011;62591;55.764;37.718;2023-04-03T10:58:44;27.33;;;13.02;;
74233;SDS011;62591;55.764;37.718;2023-04-03T11:01:19;23.95;;;12.32;;
74233;SDS011;62591;55.764;37.718;2023-04-03T11:03:49;25.63;;;12.25;;
74233;SDS011;62591;55.764;37.718;2023-04-03T11:06:21;23.80;;;12.73;;
74233;SDS011;62591;55.764;37.718;2023-04-03T11:08:53;31.77;;;13.20;;
74233;SDS011;62591;55.764;37.718;2023-04-03T11:11:25;25.10;;;12.95;;
74233;SDS011;62591;55.764;37.718;2023-04-03T11:13:58;28.83;;;13.65;;
74233;SDS011;62591;55.764;37.718;2023-04-03T11:16:33;23.45;;;12.20;;
74233;SDS011;62591;55.764;37.718;2023-04-03T11:19:20;27.13;;;11.07;;
74233;SDS011;62591;55.764;37.718;2023-04-03T11:21:51;18.65;;;9.82;;
74233;SDS011;62591;55.764;37.718;2023-04-03T11:24:25;20.40;;;10.20;;
74233;SDS011;62591;55.764;37.718;2023-04-03T11:26:59;18.10;;;10.07;;
74233;SDS011;62591;55.764;37.718;2023-04-03T11:29:32;17.55;;;9.63;;
74233;SDS011;62591;55.764;37.718;2023-04-03T11:32:08;22.95;;;11.38;;
74233;SDS011;62591;55.764;37.718;2023-04-03T11:34:46;19.77;;;10.52;;
74233;SDS011;62591;55.764;37.718;2023-04-03T11:37:20;19.15;;;9.75;;
74233;SDS011;62591;55.764;37.718;2023-04-03T11:39:58;22.48;;;10.02;;
74233;SDS011;62591;55.764;37.718;2023-04-03T11:45:21;21.20;;;9.73;;
74233;SDS011;62591;55.764;37.718;2023-04-03T11:48:05;16.85;;;9.23;;
74233;SDS011;62591;55.764;37.718;2023-04-03T11:53:34;18.08;;;9.80;;
74233;SDS011;62591;55.764;37.718;2023-04-03T11:56:04;22.98;;;10.55;;
74233;SDS011;62591;55.764;37.718;2023-04-03T12:01:46;25.45;;;10.45;;
74233;SDS011;62591;55.764;37.718;2023-04-03T12:04:21;19.38;;;9.07;;
74233;SDS011;62591;55.764;37.718;2023-04-03T12:12:33;19.30;;;8.98;;
74233;SDS011;62591;55.764;37.718;2023-04-03T12:15:18;24.75;;;10.45;;
74233;SDS011;62591;55.764;37.718;2023-04-03T12:17:52;17.17;;;9.48;;
74233;SDS011;62591;55.764;37.718;2023-04-03T12:23:25;16.08;;;6.13;;
74233;SDS011;62591;55.764;37.718;2023-04-03T12:26:03;14.55;;;5.57;;
74233;SDS011;62591;55.764;37.718;2023-04-03T12:28:37;13.82;;;5.75;;
74233;SDS011;62591;55.764;37.718;2023-04-03T12:31:08;14.70;;;5.85;;
74233;SDS011;62591;55.764;37.718;2023-04-03T12:33:58;9.40;;;6.05;;
74233;SDS011;62591;55.764;37.718;2023-04-03T12:36:42;16.75;;;6.18;;
74233;SDS011;62591;55.764;37.718;2023-04-03T12:42:32;15.68;;;6.13;;
74233;SDS011;62591;55.764;37.718;2023-04-03T12:45:23;44.30;;;10.85;;
74233;SDS011;62591;55.764;37.718;2023-04-03T12:47:53;129.27;;;16.65;;
74233;SDS011;62591;55.764;37.718;2023-04-03T12:50:24;41.97;;;8.70;;
74233;SDS011;62591;55.764;37.718;2023-04-03T12:52:59;56.55;;;9.75;;
74233;SDS011;62591;55.764;37.718;2023-04-03T12:55:32;76.50;;;17.08;;
74233;SDS011;62591;55.764;37.718;2023-04-03T13:01:00;17.83;;;6.68;;
74233;SDS011;62591;55.764;37.718;2023-04-03T13:03:29;27.80;;;8.70;;
74233;SDS011;62591;55.764;37.718;2023-04-03T13:05:59;19.25;;;6.53;;
74233;SDS011;62591;55.764;37.718;2023-04-03T13:08:33;50.08;;;8.15;;
74233;SDS011;62591;55.764;37.718;2023-04-03T13:11:02;16.17;;;6.78;;
74233;SDS011;62591;55.764;37.718;2023-04-03T13:13:36;15.82;;;7.13;;
74233;SDS011;62591;55.764;37.718;2023-04-03T13:16:08;15.20;;;8.07;;
74233;SDS011;62591;55.764;37.718;2023-04-03T13:18:38;14.05;;;7.63;;
74233;SDS011;62591;55.764;37.718;2023-04-03T13:21:08;20.13;;;7.55;;
74233;SDS011;62591;55.764;37.718;2023-04-03T13:23:45;15.38;;;8.38;;
74233;SDS011;62591;55.764;37.718;2023-04-03T13:26:24;17.40;;;8.93;;
74233;SDS011;62591;55.764;37.718;2023-04-03T13:28:54;12.20;;;9.20;;
74233;SDS011;62591;55.764;37.718;2023-04-03T13:31:27;14.93;;;9.32;;
74233;SDS011;62591;55.764;37.718;2023-04-03T13:34:02;17.55;;;10.25;;
74233;SDS011;62591;55.764;37.718;2023-04-03T13:36:34;15.65;;;9.35;;
74233;SDS011;62591;55.764;37.718;2023-04-03T13:39:07;17.63;;;9.65;;
74233;SDS011;62591;55.764;37.718;2023-04-03T13:41:52;25.27;;;13.32;;
74233;SDS011;62591;55.764;37.718;2023-04-03T13:44:33;15.95;;;10.30;;
74233;SDS011;62591;55.764;37.718;2023-04-03T13:47:14;17.80;;;9.20;;
74233;SDS011;62591;55.764;37.718;2023-04-03T13:49:46;18.40;;;10.48;;
74233;SDS011;62591;55.764;37.718;2023-04-03T13:52:29;16.95;;;8.55;;
74233;SDS011;62591;55.764;37.718;2023-04-03T13:55:15;14.35;;;9.95;;
74233;SDS011;62591;55.764;37.718;2023-04-03T13:57:53;16.70;;;10.00;;
74233;SDS011;62591;55.764;37.718;2023-04-03T14:00:32;20.90;;;10.50;;
74233;SDS011;62591;55.764;37.718;2023-04-03T14:03:11;40.97;;;12.27;;
74233;SDS011;62591;55.764;37.718;2023-04-03T14:05:43;24.48;;;10.57;;
74233;SDS011;62591;55.764;37.718;2023-04-03T14:08:12;18.00;;;9.65;;
74233;SDS011;62591;55.764;37.718;2023-04-03T14:10:42;14.27;;;8.60;;
74233;SDS011;62591;55.764;37.718;2023-04-03T14:13:12;16.08;;;9.00;;
74233;SDS011;62591;55.764;37.718;2023-04-03T14:15:43;23.23;;;9.80;;
74233;SDS011;62591;55.764;37.718;2023-04-03T14:18:14;19.88;;;10.73;;
74233;SDS011;62591;55.764;37.718;2023-04-03T14:20:45;20.05;;;9.02;;
74233;SDS011;62591;55.764;37.718;2023-04-03T14:23:14;16.92;;;10.80;;
74233;SDS011;62591;55.764;37.718;2023-04-03T14:25:46;16.70;;;8.00;;
74233;SDS011;62591;55.764;37.718;2023-04-03T14:28:17;15.55;;;9.65;;
74233;SDS011;62591;55.764;37.718;2023-04-03T14:30:47;12.50;;;8.82;;
74233;SDS011;62591;55.764;37.718;2023-04-03T14:33:19;16.08;;;9.65;;
74233;SDS011;62591;55.764;37.718;2023-04-03T14:35:49;14.13;;;9.40;;
74233;SDS011;62591;55.764;37.718;2023-04-03T14:38:28;17.70;;;10.25;;
74233;SDS011;62591;55.764;37.718;2023-04-03T14:40:59;18.20;;;10.60;;
74233;SDS011;62591;55.764;37.718;2023-04-03T14:43:41;17.80;;;9.48;;
74233;SDS011;62591;55.764;37.718;2023-04-03T14:48:43;20.50;;;10.75;;
74233;SDS011;62591;55.764;37.718;2023-04-03T14:51:12;25.13;;;13.55;;
74233;SDS011;62591;55.764;37.718;2023-04-03T14:53:42;19.63;;;12.30;;
74233;SDS011;62591;55.764;37.718;2023-04-03T14:56:14;19.95;;;10.82;;
74233;SDS011;62591;55.764;37.718;2023-04-03T14:58:57;23.77;;;12.30;;
74233;SDS011;62591;55.764;37.718;2023-04-03T15:01:30;28.52;;;12.30;;
74233;SDS011;62591;55.764;37.718;2023-04-03T15:03:59;18.02;;;10.43;;
74233;SDS011;62591;55.764;37.718;2023-04-03T15:06:28;21.90;;;9.68;;
74233;SDS011;62591;55.764;37.718;2023-04-03T15:08:58;13.98;;;8.40;;
74233;SDS011;62591;55.764;37.718;2023-04-03T15:11:28;14.32;;;8.15;;
74233;SDS011;62591;55.764;37.718;2023-04-03T15:13:56;18.17;;;8.80;;
74233;SDS011;62591;55.764;37.718;2023-04-03T15:16:28;16.13;;;9.25;;
74233;SDS011;62591;55.764;37.718;2023-04-03T15:18:57;11.55;;;8.35;;
74233;SDS011;62591;55.764;37.718;2023-04-03T15:21:28;17.80;;;7.78;;